sensor_id;sensor_type;location;lat;lon;timestamp;temperature;humidity
3051;DHT22;1535;51.098;6.414;2022-08-02T00:00:56;14.10;99.90
3051;DHT22;1535;51.098;6.414;2022-08-02T00:03:23;14.00;99.90
3051;DHT22;1535;51.098;6.414;2022-08-02T00:05:52;14.00;99.90
3051;DHT22;1535;51.098;6.414;2022-08-02T00:08:20;14.00;99.90
3051;DHT22;1535;51.098;6.414;2022-08-02T00:10:47;14.00;99.90
3051;DHT22;1535;51.098;6.414;2022-08-02T00:13:16;14.00;99.90
3051;DHT22;1535;51.098;6.414;2022-08-02T00:15:43;14.00;99.90
3051;DHT22;1535;51.098;6.414;2022-08-02T00:18:10;14.00;99.90
3051;DHT22;1535;51.098;6.414;2022-08-02T00:20:37;14.00;99.90
3051;DHT22;1535;51.098;6.414;2022-08-02T00:23:05;14.00;99.90
3051;DHT22;1535;51.098;6.414;2022-08-02T00:25:32;14.10;99.90
3051;DHT22;1535;51.098;6.414;2022-08-02T00:28:00;14.10;99.90
3051;DHT22;1535;51.098;6.414;2022-08-02T00:30:26;14.10;99.90
3051;DHT22;1535;51.098;6.414;2022-08-02T00:32:53;14.20;99.90
3051;DHT22;1535;51.098;6.414;2022-08-02T00:35:20;14.20;99.90
3051;DHT22;1535;51.098;6.414;2022-08-02T00:37:47;14.30;99.90
3051;DHT22;1535;51.098;6.414;2022-08-02T00:40:15;14.30;99.90
3051;DHT22;1535;51.098;6.414;2022-08-02T00:42:42;14.20;99.90
3051;DHT22;1535;51.098;6.414;2022-08-02T00:45:11;14.20;99.90
3051;DHT22;1535;51.098;6.414;2022-08-02T00:47:38;14.20;99.90
3051;DHT22;1535;51.098;6.414;2022-08-02T00:50:05;14.20;99.90
3051;DHT22;1535;51.098;6.414;2022-08-02T00:52:32;14.20;99.90
3051;DHT22;1535;51.098;6.414;2022-08-02T00:54:59;14.20;99.90
3051;DHT22;1535;51.098;6.414;2022-08-02T00:57:27;14.20;99.90
3051;DHT22;1535;51.098;6.414;2022-08-02T00:59:54;14.30;99.90
3051;DHT22;1535;51.098;6.414;2022-08-02T01:02:22;14.30;99.90
3051;DHT22;1535;51.098;6.414;2022-08-02T01:04:49;14.30;99.90
3051;DHT22;1535;51.098;6.414;2022-08-02T01:07:17;14.40;99.90
3051;DHT22;1535;51.098;6.414;2022-08-02T01:09:44;14.40;99.90
3051;DHT22;1535;51.098;6.414;2022-08-02T01:12:12;14.40;99.90
3051;DHT22;1535;51.098;6.414;2022-08-02T01:14:42;14.40;99.90
3051;DHT22;1535;51.098;6.414;2022-08-02T01:17:17;14.40;99.90
3051;DHT22;1535;51.098;6.414;2022-08-02T01:19:52;14.40;99.90
3051;DHT22;1535;51.098;6.414;2022-08-02T01:22:34;14.30;99.90
3051;DHT22;1535;51.098;6.414;2022-08-02T01:25:17;14.30;99.90
3051;DHT22;1535;51.098;6.414;2022-08-02T01:28:02;14.30;99.90
3051;DHT22;1535;51.098;6.414;2022-08-02T01:30:32;14.40;99.90
3051;DHT22;1535;51.098;6.414;2022-08-02T01:33:01;14.40;99.90
3051;DHT22;1535;51.098;6.414;2022-08-02T01:35:34;14.30;99.90
3051;DHT22;1535;51.098;6.414;2022-08-02T01:38:08;14.30;99.90
3051;DHT22;1535;51.098;6.414;2022-08-02T01:40:38;14.30;99.90
3051;DHT22;1535;51.098;6.414;2022-08-02T01:43:10;14.20;99.90
3051;DHT22;1535;51.098;6.414;2022-08-02T01:45:40;14.10;99.90
3051;DHT22;1535;51.098;6.414;2022-08-02T01:48:09;14.10;99.90
3051;DHT22;1535;51.098;6.414;2022-08-02T01:50:38;14.00;99.90
3051;DHT22;1535;51.098;6.414;2022-08-02T01:53:08;14.00;99.90
3051;DHT22;1535;51.098;6.414;2022-08-02T01:55:42;14.00;99.90
3051;DHT22;1535;51.098;6.414;2022-08-02T01:58:16;14.00;99.90
3051;DHT22;1535;51.098;6.414;2022-08-02T02:00:47;14.00;99.90
3051;DHT22;1535;51.098;6.414;2022-08-02T02:03:18;14.00;99.90
3051;DHT22;1535;51.098;6.414;2022-08-02T02:05:47;13.90;99.90
3051;DHT22;1535;51.098;6.414;2022-08-02T02:08:16;14.00;99.90
3051;DHT22;1535;51.098;6.414;2022-08-02T02:10:46;13.90;99.90
3051;DHT22;1535;51.098;6.414;2022-08-02T02:13:16;13.90;99.90
3051;DHT22;1535;51.098;6.414;2022-08-02T02:15:46;13.90;99.90
3051;DHT22;1535;51.098;6.414;2022-08-02T02:18:19;13.80;99.90
3051;DHT22;1535;51.098;6.414;2022-08-02T02:20:47;13.80;99.90
3051;DHT22;1535;51.098;6.414;2022-08-02T02:23:16;13.80;99.90
3051;DHT22;1535;51.098;6.414;2022-08-02T02:25:44;13.80;99.90
3051;DHT22;1535;51.098;6.414;2022-08-02T02:28:16;13.70;99.90
3051;DHT22;1535;51.098;6.414;2022-08-02T02:30:48;13.70;99.90
3051;DHT22;1535;51.098;6.414;2022-08-02T02:33:17;13.70;99.90
3051;DHT22;1535;51.098;6.414;2022-08-02T02:35:48;13.70;99.90
3051;DHT22;1535;51.098;6.414;2022-08-02T02:38:17;13.70;99.90
3051;DHT22;1535;51.098;6.414;2022-08-02T02:40:47;13.70;99.90
3051;DHT22;1535;51.098;6.414;2022-08-02T02:43:17;13.60;99.90
3051;DHT22;1535;51.098;6.414;2022-08-02T02:45:47;13.60;99.90
3051;DHT22;1535;51.098;6.414;2022-08-02T02:48:15;13.50;99.90
3051;DHT22;1535;51.098;6.414;2022-08-02T02:50:43;13.50;99.90
3051;DHT22;1535;51.098;6.414;2022-08-02T02:53:15;13.50;99.90
3051;DHT22;1535;51.098;6.414;2022-08-02T02:55:44;13.50;99.90
3051;DHT22;1535;51.098;6.414;2022-08-02T02:58:12;13.50;99.90
3051;DHT22;1535;51.098;6.414;2022-08-02T03:00:41;13.40;99.90
3051;DHT22;1535;51.098;6.414;2022-08-02T03:03:26;13.50;99.90
3051;DHT22;1535;51.098;6.414;2022-08-02T03:05:54;13.40;99.90
3051;DHT22;1535;51.098;6.414;2022-08-02T03:08:22;13.40;99.90
3051;DHT22;1535;51.098;6.414;2022-08-02T03:10:49;13.30;99.90
3051;DHT22;1535;51.098;6.414;2022-08-02T03:13:17;13.30;99.90
3051;DHT22;1535;51.098;6.414;2022-08-02T03:15:46;13.30;99.90
3051;DHT22;1535;51.098;6.414;2022-08-02T03:18:29;13.30;99.90
3051;DHT22;1535;51.098;6.414;2022-08-02T03:20:58;13.30;99.90
3051;DHT22;1535;51.098;6.414;2022-08-02T03:23:27;13.30;99.90
3051;DHT22;1535;51.098;6.414;2022-08-02T03:25:55;13.20;99.90
3051;DHT22;1535;51.098;6.414;2022-08-02T03:28:22;13.20;99.90
3051;DHT22;1535;51.098;6.414;2022-08-02T03:30:51;13.20;99.90
3051;DHT22;1535;51.098;6.414;2022-08-02T03:33:18;13.20;99.90
3051;DHT22;1535;51.098;6.414;2022-08-02T03:35:47;13.20;99.90
3051;DHT22;1535;51.098;6.414;2022-08-02T03:38:17;13.20;99.90
3051;DHT22;1535;51.098;6.414;2022-08-02T03:40:45;13.20;99.90
3051;DHT22;1535;51.098;6.414;2022-08-02T03:43:15;13.20;99.90
3051;DHT22;1535;51.098;6.414;2022-08-02T03:45:46;13.20;99.90
3051;DHT22;1535;51.098;6.414;2022-08-02T03:48:16;13.10;99.90
3051;DHT22;1535;51.098;6.414;2022-08-02T03:50:46;13.10;99.90
3051;DHT22;1535;51.098;6.414;2022-08-02T03:53:15;13.10;99.90
3051;DHT22;1535;51.098;6.414;2022-08-02T03:55:43;13.00;99.90
3051;DHT22;1535;51.098;6.414;2022-08-02T03:58:18;13.00;99.90
3051;DHT22;1535;51.098;6.414;2022-08-02T04:00:45;13.00;99.90
3051;DHT22;1535;51.098;6.414;2022-08-02T04:03:14;13.00;99.90
3051;DHT22;1535;51.098;6.414;2022-08-02T04:05:41;12.90;99.90
3051;DHT22;1535;51.098;6.414;2022-08-02T04:08:08;12.90;99.90
3051;DHT22;1535;51.098;6.414;2022-08-02T04:10:35;12.90;99.90
3051;DHT22;1535;51.098;6.414;2022-08-02T04:13:16;12.90;99.90
3051;DHT22;1535;51.098;6.414;2022-08-02T04:15:44;12.90;99.90
3051;DHT22;1535;51.098;6.414;2022-08-02T04:18:12;12.90;99.90
3051;DHT22;1535;51.098;6.414;2022-08-02T04:20:42;12.90;99.90
3051;DHT22;1535;51.098;6.414;2022-08-02T04:23:24;12.90;99.90
3051;DHT22;1535;51.098;6.414;2022-08-02T04:25:53;12.90;99.90
3051;DHT22;1535;51.098;6.414;2022-08-02T04:28:20;12.90;99.90
3051;DHT22;1535;51.098;6.414;2022-08-02T04:30:49;13.00;99.90
3051;DHT22;1535;51.098;6.414;2022-08-02T04:33:16;13.00;99.90
3051;DHT22;1535;51.098;6.414;2022-08-02T04:35:45;13.00;99.90
3051;DHT22;1535;51.098;6.414;2022-08-02T04:38:13;13.10;99.90
3051;DHT22;1535;51.098;6.414;2022-08-02T04:40:40;13.10;99.90
3051;DHT22;1535;51.098;6.414;2022-08-02T04:43:15;13.20;99.90
3051;DHT22;1535;51.098;6.414;2022-08-02T04:45:42;13.20;99.90
3051;DHT22;1535;51.098;6.414;2022-08-02T04:48:09;13.30;99.90
3051;DHT22;1535;51.098;6.414;2022-08-02T04:50:36;13.40;99.90
3051;DHT22;1535;51.098;6.414;2022-08-02T04:53:04;13.40;99.90
3051;DHT22;1535;51.098;6.414;2022-08-02T04:55:31;13.30;99.90
3051;DHT22;1535;51.098;6.414;2022-08-02T04:57:58;13.40;99.90
3051;DHT22;1535;51.098;6.414;2022-08-02T05:00:26;13.50;99.90
3051;DHT22;1535;51.098;6.414;2022-08-02T05:02:55;13.70;99.90
3051;DHT22;1535;51.098;6.414;2022-08-02T05:05:22;13.80;99.90
3051;DHT22;1535;51.098;6.414;2022-08-02T05:07:49;14.00;99.90
3051;DHT22;1535;51.098;6.414;2022-08-02T05:10:18;14.20;99.90
3051;DHT22;1535;51.098;6.414;2022-08-02T05:12:44;14.40;99.90
3051;DHT22;1535;51.098;6.414;2022-08-02T05:15:12;14.70;99.90
3051;DHT22;1535;51.098;6.414;2022-08-02T05:17:42;14.90;99.90
3051;DHT22;1535;51.098;6.414;2022-08-02T05:20:09;15.10;99.90
3051;DHT22;1535;51.098;6.414;2022-08-02T05:22:37;15.30;99.90
3051;DHT22;1535;51.098;6.414;2022-08-02T05:25:05;15.40;99.90
3051;DHT22;1535;51.098;6.414;2022-08-02T05:27:34;15.50;99.90
3051;DHT22;1535;51.098;6.414;2022-08-02T05:30:02;15.60;99.90
3051;DHT22;1535;51.098;6.414;2022-08-02T05:32:29;15.60;99.90
3051;DHT22;1535;51.098;6.414;2022-08-02T05:34:56;15.70;99.90
3051;DHT22;1535;51.098;6.414;2022-08-02T05:37:23;15.90;99.90
3051;DHT22;1535;51.098;6.414;2022-08-02T05:39:50;16.00;99.90
3051;DHT22;1535;51.098;6.414;2022-08-02T05:42:16;16.20;99.90
3051;DHT22;1535;51.098;6.414;2022-08-02T05:44:45;16.30;99.90
3051;DHT22;1535;51.098;6.414;2022-08-02T05:47:12;16.50;99.90
3051;DHT22;1535;51.098;6.414;2022-08-02T05:49:39;16.60;99.90
3051;DHT22;1535;51.098;6.414;2022-08-02T05:52:10;16.70;99.90
3051;DHT22;1535;51.098;6.414;2022-08-02T05:54:47;16.90;99.90
3051;DHT22;1535;51.098;6.414;2022-08-02T05:57:19;17.00;99.90
3051;DHT22;1535;51.098;6.414;2022-08-02T06:00:00;17.20;99.90
3051;DHT22;1535;51.098;6.414;2022-08-02T06:02:30;17.30;99.90
3051;DHT22;1535;51.098;6.414;2022-08-02T06:05:04;17.50;99.90
3051;DHT22;1535;51.098;6.414;2022-08-02T06:07:35;17.60;99.90
3051;DHT22;1535;51.098;6.414;2022-08-02T06:10:03;17.70;99.90
3051;DHT22;1535;51.098;6.414;2022-08-02T06:12:32;17.80;99.90
3051;DHT22;1535;51.098;6.414;2022-08-02T06:15:04;18.00;99.90
3051;DHT22;1535;51.098;6.414;2022-08-02T06:17:31;18.10;99.90
3051;DHT22;1535;51.098;6.414;2022-08-02T06:19:59;18.20;99.90
3051;DHT22;1535;51.098;6.414;2022-08-02T06:22:27;18.40;99.90
3051;DHT22;1535;51.098;6.414;2022-08-02T06:24:54;18.50;99.90
3051;DHT22;1535;51.098;6.414;2022-08-02T06:27:25;18.60;99.90
3051;DHT22;1535;51.098;6.414;2022-08-02T06:29:53;18.80;99.90
3051;DHT22;1535;51.098;6.414;2022-08-02T06:32:22;18.90;99.90
3051;DHT22;1535;51.098;6.414;2022-08-02T06:34:51;19.10;99.90
3051;DHT22;1535;51.098;6.414;2022-08-02T06:37:25;19.30;99.90
3051;DHT22;1535;51.098;6.414;2022-08-02T06:39:58;19.40;99.90
3051;DHT22;1535;51.098;6.414;2022-08-02T06:42:35;19.60;99.90
3051;DHT22;1535;51.098;6.414;2022-08-02T06:45:03;19.70;99.90
3051;DHT22;1535;51.098;6.414;2022-08-02T06:47:32;19.80;99.90
3051;DHT22;1535;51.098;6.414;2022-08-02T06:49:59;20.00;99.90
3051;DHT22;1535;51.098;6.414;2022-08-02T06:52:27;20.00;99.90
3051;DHT22;1535;51.098;6.414;2022-08-02T06:54:56;20.10;99.90
3051;DHT22;1535;51.098;6.414;2022-08-02T06:57:24;20.30;99.90
3051;DHT22;1535;51.098;6.414;2022-08-02T06:59:51;20.40;99.90
3051;DHT22;1535;51.098;6.414;2022-08-02T07:02:18;20.50;99.90
3051;DHT22;1535;51.098;6.414;2022-08-02T07:04:46;20.70;99.90
3051;DHT22;1535;51.098;6.414;2022-08-02T07:07:13;20.90;99.90
3051;DHT22;1535;51.098;6.414;2022-08-02T07:09:40;21.00;99.90
3051;DHT22;1535;51.098;6.414;2022-08-02T07:12:08;21.20;99.90
3051;DHT22;1535;51.098;6.414;2022-08-02T07:14:49;21.40;99.90
3051;DHT22;1535;51.098;6.414;2022-08-02T07:17:16;21.60;99.90
3051;DHT22;1535;51.098;6.414;2022-08-02T07:19:43;21.60;99.90
3051;DHT22;1535;51.098;6.414;2022-08-02T07:22:11;21.80;99.90
3051;DHT22;1535;51.098;6.414;2022-08-02T07:24:38;21.90;99.90
3051;DHT22;1535;51.098;6.414;2022-08-02T07:27:06;22.00;99.90
3051;DHT22;1535;51.098;6.414;2022-08-02T07:29:33;22.10;99.90
3051;DHT22;1535;51.098;6.414;2022-08-02T07:32:00;22.30;99.90
3051;DHT22;1535;51.098;6.414;2022-08-02T07:34:41;22.40;99.90
3051;DHT22;1535;51.098;6.414;2022-08-02T07:37:08;22.60;99.90
3051;DHT22;1535;51.098;6.414;2022-08-02T07:39:36;22.80;99.90
3051;DHT22;1535;51.098;6.414;2022-08-02T07:42:03;22.80;99.90
3051;DHT22;1535;51.098;6.414;2022-08-02T07:44:30;23.00;99.90
3051;DHT22;1535;51.098;6.414;2022-08-02T07:47:11;23.10;99.90
3051;DHT22;1535;51.098;6.414;2022-08-02T07:49:39;23.20;99.90
3051;DHT22;1535;51.098;6.414;2022-08-02T07:52:06;23.50;99.90
3051;DHT22;1535;51.098;6.414;2022-08-02T07:54:33;23.70;99.90
3051;DHT22;1535;51.098;6.414;2022-08-02T07:57:02;23.80;99.90
3051;DHT22;1535;51.098;6.414;2022-08-02T07:59:28;23.80;99.90
3051;DHT22;1535;51.098;6.414;2022-08-02T08:01:56;24.10;99.90
3051;DHT22;1535;51.098;6.414;2022-08-02T08:04:23;24.20;99.90
3051;DHT22;1535;51.098;6.414;2022-08-02T08:06:50;24.40;99.90
3051;DHT22;1535;51.098;6.414;2022-08-02T08:09:19;24.50;99.90
3051;DHT22;1535;51.098;6.414;2022-08-02T08:11:47;24.40;99.90
3051;DHT22;1535;51.098;6.414;2022-08-02T08:14:15;24.70;99.90
3051;DHT22;1535;51.098;6.414;2022-08-02T08:16:42;25.00;99.90
3051;DHT22;1535;51.098;6.414;2022-08-02T08:19:09;25.10;99.90
3051;DHT22;1535;51.098;6.414;2022-08-02T08:21:36;25.20;99.90
3051;DHT22;1535;51.098;6.414;2022-08-02T08:24:04;25.30;99.90
3051;DHT22;1535;51.098;6.414;2022-08-02T08:26:31;25.50;99.90
3051;DHT22;1535;51.098;6.414;2022-08-02T08:28:58;25.60;99.90
3051;DHT22;1535;51.098;6.414;2022-08-02T08:31:27;25.60;99.90
3051;DHT22;1535;51.098;6.414;2022-08-02T08:33:54;25.70;99.90
3051;DHT22;1535;51.098;6.414;2022-08-02T08:36:21;25.90;99.90
3051;DHT22;1535;51.098;6.414;2022-08-02T08:38:48;26.10;99.90
3051;DHT22;1535;51.098;6.414;2022-08-02T08:41:16;26.70;99.90
3051;DHT22;1535;51.098;6.414;2022-08-02T08:43:43;27.20;99.90
3051;DHT22;1535;51.098;6.414;2022-08-02T08:46:12;27.50;99.90
3051;DHT22;1535;51.098;6.414;2022-08-02T08:48:45;27.70;99.90
3051;DHT22;1535;51.098;6.414;2022-08-02T08:51:16;27.80;99.90
3051;DHT22;1535;51.098;6.414;2022-08-02T08:53:47;28.20;99.90
3051;DHT22;1535;51.098;6.414;2022-08-02T08:56:15;28.80;99.90
3051;DHT22;1535;51.098;6.414;2022-08-02T08:58:44;28.80;99.90
3051;DHT22;1535;51.098;6.414;2022-08-02T09:01:13;29.10;99.90
3051;DHT22;1535;51.098;6.414;2022-08-02T09:03:41;29.70;99.90
3051;DHT22;1535;51.098;6.414;2022-08-02T09:06:10;29.70;99.90
3051;DHT22;1535;51.098;6.414;2022-08-02T09:08:37;30.00;99.90
3051;DHT22;1535;51.098;6.414;2022-08-02T09:11:12;30.00;99.90
3051;DHT22;1535;51.098;6.414;2022-08-02T09:13:48;30.20;99.90
3051;DHT22;1535;51.098;6.414;2022-08-02T09:16:15;30.30;98.80
3051;DHT22;1535;51.098;6.414;2022-08-02T09:18:52;30.00;98.50
3051;DHT22;1535;51.098;6.414;2022-08-02T09:21:20;29.90;99.00
3051;DHT22;1535;51.098;6.414;2022-08-02T09:23:49;29.40;99.60
3051;DHT22;1535;51.098;6.414;2022-08-02T09:26:18;29.50;99.70
3051;DHT22;1535;51.098;6.414;2022-08-02T09:28:46;29.30;99.90
3051;DHT22;1535;51.098;6.414;2022-08-02T09:31:15;29.30;99.70
3051;DHT22;1535;51.098;6.414;2022-08-02T09:33:50;29.60;99.00
3051;DHT22;1535;51.098;6.414;2022-08-02T09:36:20;29.90;99.30
3051;DHT22;1535;51.098;6.414;2022-08-02T09:38:55;30.00;98.20
3051;DHT22;1535;51.098;6.414;2022-08-02T09:41:24;30.70;97.50
3051;DHT22;1535;51.098;6.414;2022-08-02T09:43:52;30.90;97.00
3051;DHT22;1535;51.098;6.414;2022-08-02T09:46:23;30.60;96.40
3051;DHT22;1535;51.098;6.414;2022-08-02T09:48:52;30.40;97.10
3051;DHT22;1535;51.098;6.414;2022-08-02T09:51:22;30.30;97.00
3051;DHT22;1535;51.098;6.414;2022-08-02T09:53:51;30.60;96.00
3051;DHT22;1535;51.098;6.414;2022-08-02T09:56:19;31.10;95.40
3051;DHT22;1535;51.098;6.414;2022-08-02T09:58:47;30.70;95.40
3051;DHT22;1535;51.098;6.414;2022-08-02T10:01:14;30.10;95.40
3051;DHT22;1535;51.098;6.414;2022-08-02T10:03:55;30.00;96.40
3051;DHT22;1535;51.098;6.414;2022-08-02T10:06:24;29.70;96.00
3051;DHT22;1535;51.098;6.414;2022-08-02T10:08:52;28.90;96.80
3051;DHT22;1535;51.098;6.414;2022-08-02T10:11:20;28.60;96.80
3051;DHT22;1535;51.098;6.414;2022-08-02T10:13:47;28.30;97.50
3051;DHT22;1535;51.098;6.414;2022-08-02T10:16:16;28.80;98.10
3051;DHT22;1535;51.098;6.414;2022-08-02T10:18:44;29.60;96.70
3051;DHT22;1535;51.098;6.414;2022-08-02T10:21:13;30.30;95.20
3051;DHT22;1535;51.098;6.414;2022-08-02T10:23:44;30.70;94.10
3051;DHT22;1535;51.098;6.414;2022-08-02T10:26:16;31.00;93.20
3051;DHT22;1535;51.098;6.414;2022-08-02T10:28:46;31.10;93.00
3051;DHT22;1535;51.098;6.414;2022-08-02T10:31:18;31.60;91.50
3051;DHT22;1535;51.098;6.414;2022-08-02T10:33:47;32.00;91.70
3051;DHT22;1535;51.098;6.414;2022-08-02T10:36:17;32.00;91.30
3051;DHT22;1535;51.098;6.414;2022-08-02T10:38:46;31.80;86.80
3051;DHT22;1535;51.098;6.414;2022-08-02T10:41:13;32.10;87.50
3051;DHT22;1535;51.098;6.414;2022-08-02T10:43:42;32.60;89.60
3051;DHT22;1535;51.098;6.414;2022-08-02T10:46:36;33.40;87.40
3051;DHT22;1535;51.098;6.414;2022-08-02T10:49:08;32.70;84.40
3051;DHT22;1535;51.098;6.414;2022-08-02T10:52:04;31.80;85.60
3051;DHT22;1535;51.098;6.414;2022-08-02T10:54:35;32.00;85.10
3051;DHT22;1535;51.098;6.414;2022-08-02T10:57:03;32.00;85.20
3051;DHT22;1535;51.098;6.414;2022-08-02T10:59:39;31.90;85.80
3051;DHT22;1535;51.098;6.414;2022-08-02T11:02:06;32.20;83.80
3051;DHT22;1535;51.098;6.414;2022-08-02T11:05:01;32.40;84.80
3051;DHT22;1535;51.098;6.414;2022-08-02T11:07:34;32.80;80.70
3051;DHT22;1535;51.098;6.414;2022-08-02T11:10:34;33.20;78.90
3051;DHT22;1535;51.098;6.414;2022-08-02T11:13:07;32.50;79.00
3051;DHT22;1535;51.098;6.414;2022-08-02T11:15:57;32.00;79.00
3051;DHT22;1535;51.098;6.414;2022-08-02T11:19:03;32.30;80.40
3051;DHT22;1535;51.098;6.414;2022-08-02T11:21:35;32.40;80.40
3051;DHT22;1535;51.098;6.414;2022-08-02T11:24:27;32.50;77.00
3051;DHT22;1535;51.098;6.414;2022-08-02T11:26:56;32.70;79.50
3051;DHT22;1535;51.098;6.414;2022-08-02T11:29:35;33.50;80.40
3051;DHT22;1535;51.098;6.414;2022-08-02T11:32:03;34.20;73.20
3051;DHT22;1535;51.098;6.414;2022-08-02T11:34:31;34.50;72.60
3051;DHT22;1535;51.098;6.414;2022-08-02T11:36:59;34.70;70.50
3051;DHT22;1535;51.098;6.414;2022-08-02T11:39:26;34.70;67.80
3051;DHT22;1535;51.098;6.414;2022-08-02T11:41:54;34.10;68.60
3051;DHT22;1535;51.098;6.414;2022-08-02T11:44:23;33.70;67.20
3051;DHT22;1535;51.098;6.414;2022-08-02T11:46:55;33.70;67.50
3051;DHT22;1535;51.098;6.414;2022-08-02T11:49:22;33.40;66.30
3051;DHT22;1535;51.098;6.414;2022-08-02T11:51:54;33.10;66.10
3051;DHT22;1535;51.098;6.414;2022-08-02T11:54:23;33.00;67.30
3051;DHT22;1535;51.098;6.414;2022-08-02T11:56:50;32.90;69.00
3051;DHT22;1535;51.098;6.414;2022-08-02T11:59:16;32.30;70.70
3051;DHT22;1535;51.098;6.414;2022-08-02T12:01:45;32.00;71.90
3051;DHT22;1535;51.098;6.414;2022-08-02T12:04:17;31.70;74.80
3051;DHT22;1535;51.098;6.414;2022-08-02T12:06:53;31.50;73.20
3051;DHT22;1535;51.098;6.414;2022-08-02T12:09:19;31.50;74.30
3051;DHT22;1535;51.098;6.414;2022-08-02T12:11:47;31.60;74.40
3051;DHT22;1535;51.098;6.414;2022-08-02T12:14:15;31.40;74.30
3051;DHT22;1535;51.098;6.414;2022-08-02T12:16:43;31.30;76.90
3051;DHT22;1535;51.098;6.414;2022-08-02T12:19:29;31.30;75.60
3051;DHT22;1535;51.098;6.414;2022-08-02T12:22:06;31.80;75.60
3051;DHT22;1535;51.098;6.414;2022-08-02T12:24:34;32.80;72.30
3051;DHT22;1535;51.098;6.414;2022-08-02T12:27:04;33.50;72.00
3051;DHT22;1535;51.098;6.414;2022-08-02T12:29:32;33.80;70.80
3051;DHT22;1535;51.098;6.414;2022-08-02T12:32:00;34.00;68.90
3051;DHT22;1535;51.098;6.414;2022-08-02T12:34:30;33.80;67.80
3051;DHT22;1535;51.098;6.414;2022-08-02T12:36:59;33.20;67.30
3051;DHT22;1535;51.098;6.414;2022-08-02T12:39:36;33.00;68.60
3051;DHT22;1535;51.098;6.414;2022-08-02T12:42:04;31.90;71.00
3051;DHT22;1535;51.098;6.414;2022-08-02T12:44:32;32.70;69.90
3051;DHT22;1535;51.098;6.414;2022-08-02T12:47:00;33.70;67.80
3051;DHT22;1535;51.098;6.414;2022-08-02T12:49:30;34.00;67.10
3051;DHT22;1535;51.098;6.414;2022-08-02T12:51:57;34.60;64.40
3051;DHT22;1535;51.098;6.414;2022-08-02T12:54:26;34.60;64.10
3051;DHT22;1535;51.098;6.414;2022-08-02T12:56:54;35.00;64.90
3051;DHT22;1535;51.098;6.414;2022-08-02T12:59:35;34.80;64.10
3051;DHT22;1535;51.098;6.414;2022-08-02T13:02:03;35.10;62.10
3051;DHT22;1535;51.098;6.414;2022-08-02T13:04:33;34.40;62.70
3051;DHT22;1535;51.098;6.414;2022-08-02T13:07:01;35.10;63.10
3051;DHT22;1535;51.098;6.414;2022-08-02T13:09:34;35.50;59.60
3051;DHT22;1535;51.098;6.414;2022-08-02T13:12:02;35.30;59.70
3051;DHT22;1535;51.098;6.414;2022-08-02T13:14:28;35.60;59.50
3051;DHT22;1535;51.098;6.414;2022-08-02T13:16:55;35.40;59.90
3051;DHT22;1535;51.098;6.414;2022-08-02T13:19:23;35.60;58.70
3051;DHT22;1535;51.098;6.414;2022-08-02T13:21:52;35.30;59.60
3051;DHT22;1535;51.098;6.414;2022-08-02T13:24:20;35.40;58.80
3051;DHT22;1535;51.098;6.414;2022-08-02T13:26:47;35.70;58.90
3051;DHT22;1535;51.098;6.414;2022-08-02T13:29:13;36.10;57.80
3051;DHT22;1535;51.098;6.414;2022-08-02T13:31:41;35.60;56.80
3051;DHT22;1535;51.098;6.414;2022-08-02T13:34:08;35.60;55.50
3051;DHT22;1535;51.098;6.414;2022-08-02T13:36:35;34.90;56.60
3051;DHT22;1535;51.098;6.414;2022-08-02T13:39:04;35.50;56.20
3051;DHT22;1535;51.098;6.414;2022-08-02T13:41:31;35.50;56.30
3051;DHT22;1535;51.098;6.414;2022-08-02T13:43:58;35.50;55.10
3051;DHT22;1535;51.098;6.414;2022-08-02T13:46:25;35.70;55.40
3051;DHT22;1535;51.098;6.414;2022-08-02T13:48:52;35.80;56.10
3051;DHT22;1535;51.098;6.414;2022-08-02T13:51:19;36.00;53.70
3051;DHT22;1535;51.098;6.414;2022-08-02T13:53:46;36.10;54.00
3051;DHT22;1535;51.098;6.414;2022-08-02T13:56:14;36.40;53.30
3051;DHT22;1535;51.098;6.414;2022-08-02T13:58:41;36.90;53.10
3051;DHT22;1535;51.098;6.414;2022-08-02T14:01:08;37.10;52.70
3051;DHT22;1535;51.098;6.414;2022-08-02T14:03:35;36.10;51.60
3051;DHT22;1535;51.098;6.414;2022-08-02T14:06:02;35.20;53.70
3051;DHT22;1535;51.098;6.414;2022-08-02T14:08:31;35.60;53.50
3051;DHT22;1535;51.098;6.414;2022-08-02T14:10:58;35.90;53.00
3051;DHT22;1535;51.098;6.414;2022-08-02T14:13:26;36.20;52.10
3051;DHT22;1535;51.098;6.414;2022-08-02T14:15:53;36.40;50.90
3051;DHT22;1535;51.098;6.414;2022-08-02T14:18:21;36.90;50.20
3051;DHT22;1535;51.098;6.414;2022-08-02T14:20:47;36.20;49.80
3051;DHT22;1535;51.098;6.414;2022-08-02T14:23:15;36.30;49.90
3051;DHT22;1535;51.098;6.414;2022-08-02T14:25:42;37.10;49.10
3051;DHT22;1535;51.098;6.414;2022-08-02T14:28:09;36.70;48.50
3051;DHT22;1535;51.098;6.414;2022-08-02T14:30:37;36.30;49.50
3051;DHT22;1535;51.098;6.414;2022-08-02T14:33:04;36.00;49.70
3051;DHT22;1535;51.098;6.414;2022-08-02T14:35:31;35.90;50.30
3051;DHT22;1535;51.098;6.414;2022-08-02T14:37:58;36.40;50.30
3051;DHT22;1535;51.098;6.414;2022-08-02T14:40:25;36.90;49.40
3051;DHT22;1535;51.098;6.414;2022-08-02T14:42:52;37.10;48.50
3051;DHT22;1535;51.098;6.414;2022-08-02T14:45:19;36.90;48.10
3051;DHT22;1535;51.098;6.414;2022-08-02T14:47:50;36.00;48.80
3051;DHT22;1535;51.098;6.414;2022-08-02T14:50:17;35.90;48.50
3051;DHT22;1535;51.098;6.414;2022-08-02T14:52:45;36.00;48.80
3051;DHT22;1535;51.098;6.414;2022-08-02T14:55:12;35.90;48.60
3051;DHT22;1535;51.098;6.414;2022-08-02T14:57:39;35.60;49.10
3051;DHT22;1535;51.098;6.414;2022-08-02T15:00:07;35.60;49.60
3051;DHT22;1535;51.098;6.414;2022-08-02T15:02:34;35.60;48.70
3051;DHT22;1535;51.098;6.414;2022-08-02T15:05:03;36.00;48.40
3051;DHT22;1535;51.098;6.414;2022-08-02T15:07:31;35.80;49.30
3051;DHT22;1535;51.098;6.414;2022-08-02T15:09:57;36.00;48.70
3051;DHT22;1535;51.098;6.414;2022-08-02T15:12:24;36.10;48.30
3051;DHT22;1535;51.098;6.414;2022-08-02T15:14:51;35.80;48.20
3051;DHT22;1535;51.098;6.414;2022-08-02T15:17:19;35.60;49.00
3051;DHT22;1535;51.098;6.414;2022-08-02T15:19:46;35.50;48.80
3051;DHT22;1535;51.098;6.414;2022-08-02T15:22:15;35.70;49.50
3051;DHT22;1535;51.098;6.414;2022-08-02T15:24:42;36.20;49.30
3051;DHT22;1535;51.098;6.414;2022-08-02T15:27:09;36.50;48.90
3051;DHT22;1535;51.098;6.414;2022-08-02T15:29:38;36.90;47.20
3051;DHT22;1535;51.098;6.414;2022-08-02T15:32:05;36.80;47.60
3051;DHT22;1535;51.098;6.414;2022-08-02T15:34:33;36.90;47.20
3051;DHT22;1535;51.098;6.414;2022-08-02T15:37:00;37.10;46.70
3051;DHT22;1535;51.098;6.414;2022-08-02T15:39:28;37.00;45.90
3051;DHT22;1535;51.098;6.414;2022-08-02T15:41:55;37.60;45.70
3051;DHT22;1535;51.098;6.414;2022-08-02T15:44:22;36.90;45.80
3051;DHT22;1535;51.098;6.414;2022-08-02T15:46:49;37.40;45.70
3051;DHT22;1535;51.098;6.414;2022-08-02T15:49:18;38.20;45.30
3051;DHT22;1535;51.098;6.414;2022-08-02T15:51:48;37.50;45.60
3051;DHT22;1535;51.098;6.414;2022-08-02T15:54:14;37.40;44.50
3051;DHT22;1535;51.098;6.414;2022-08-02T15:56:43;37.50;44.30
3051;DHT22;1535;51.098;6.414;2022-08-02T15:59:10;37.50;44.50
3051;DHT22;1535;51.098;6.414;2022-08-02T16:01:37;37.20;45.10
3051;DHT22;1535;51.098;6.414;2022-08-02T16:04:04;37.30;43.40
3051;DHT22;1535;51.098;6.414;2022-08-02T16:06:31;36.80;43.90
3051;DHT22;1535;51.098;6.414;2022-08-02T16:08:58;36.80;44.80
3051;DHT22;1535;51.098;6.414;2022-08-02T16:11:25;36.20;44.50
3051;DHT22;1535;51.098;6.414;2022-08-02T16:13:53;35.80;44.80
3051;DHT22;1535;51.098;6.414;2022-08-02T16:16:23;35.20;46.10